Time;durP1;ratioP1;P1;durP2;ratioP2;P2;SDS_P1;SDS_P2;PMS_P1;PMS_P2;Temp;Humidity;BMP_temperature;BMP_pressure;BME280_temperature;BME280_humidity;BME280_pressure;Samples;Min_cycle;Max_cycle;Signal;HPM_P1;HPM_P2
2023/12/24 00:01:43;;;;;;;3.33;0.80;;;8.10;21.30;;;;;;5045731;28;20476;-70
2023/12/24 00:04:11;;;;;;;3.87;0.67;;;8.10;21.10;;;;;;5050406;28;20461;-70
2023/12/24 00:06:38;;;;;;;2.90;0.60;;;8.10;21.10;;;;;;5049511;28;20453;-69
2023/12/24 00:09:05;;;;;;;3.20;0.60;;;8.20;20.90;;;;;;5048841;28;20483;-69
2023/12/24 00:11:31;;;;;;;2.77;0.40;;;8.10;21.20;;;;;;5048650;28;20458;-69
2023/12/24 00:13:58;;;;;;;3.00;0.50;;;8.20;21.00;;;;;;5048325;28;20802;-69
2023/12/24 00:16:25;;;;;;;3.27;0.40;;;8.20;20.90;;;;;;5045073;28;20459;-70
2023/12/24 00:18:52;;;;;;;3.27;0.50;;;8.10;21.00;;;;;;5043171;28;20489;-70
2023/12/24 00:21:20;;;;;;;2.90;0.60;;;8.20;20.90;;;;;;5044764;28;20491;-70
2023/12/24 00:23:47;;;;;;;2.90;0.60;;;8.10;21.00;;;;;;5045837;28;20845;-70
2023/12/24 00:26:14;;;;;;;4.93;0.60;;;8.20;20.60;;;;;;5047296;28;20513;-69
2023/12/24 00:28:41;;;;;;;3.00;0.57;;;8.20;20.80;;;;;;5046929;28;20467;-70
2023/12/24 00:31:08;;;;;;;3.00;0.70;;;8.20;20.90;;;;;;5047699;28;20474;-70
2023/12/24 00:33:34;;;;;;;2.90;0.70;;;8.20;20.90;;;;;;5047169;28;20807;-70
2023/12/24 00:36:01;;;;;;;3.00;0.60;;;8.20;20.90;;;;;;5043901;28;20469;-70
2023/12/24 00:38:29;;;;;;;3.20;0.70;;;8.20;21.10;;;;;;5046918;28;20965;-70
2023/12/24 00:40:56;;;;;;;7.37;1.43;;;8.20;20.90;;;;;;5047208;28;20454;-70
2023/12/24 00:43:23;;;;;;;2.90;0.60;;;8.20;20.90;;;;;;5048581;28;20803;-70
2023/12/24 00:45:50;;;;;;;3.10;0.60;;;8.20;20.90;;;;;;5049566;28;20462;-70
2023/12/24 00:48:17;;;;;;;3.30;0.97;;;8.20;20.80;;;;;;5046752;28;20458;-71
2023/12/24 00:50:43;;;;;;;3.47;0.50;;;8.20;21.00;;;;;;5051783;28;20474;-69
2023/12/24 00:53:10;;;;;;;3.03;0.60;;;8.20;21.10;;;;;;5048057;28;20461;-70
2023/12/24 00:55:39;;;;;;;3.00;0.60;;;8.20;21.10;;;;;;5046963;28;20454;-70
2023/12/24 00:58:06;;;;;;;2.80;0.60;;;8.20;21.10;;;;;;5047273;28;20549;-70
2023/12/24 01:00:33;;;;;;;3.57;0.87;;;8.20;21.20;;;;;;5048454;28;20475;-70
2023/12/24 01:03:00;;;;;;;2.97;0.60;;;8.20;21.10;;;;;;5046892;28;20497;-70
2023/12/24 01:05:26;;;;;;;2.80;0.53;;;8.20;21.10;;;;;;5047056;28;20454;-70
2023/12/24 01:07:53;;;;;;;3.20;0.63;;;8.20;21.30;;;;;;5055782;28;20454;-70
2023/12/24 01:10:20;;;;;;;3.87;0.50;;;8.20;21.30;;;;;;5045705;28;21182;-71
2023/12/24 01:12:48;;;;;;;3.00;1.07;;;8.20;21.30;;;;;;5049021;28;20862;-69
2023/12/24 01:15:15;;;;;;;3.10;0.50;;;8.20;21.30;;;;;;5046757;28;20458;-69
2023/12/24 01:17:41;;;;;;;2.87;0.40;;;8.20;21.40;;;;;;5050365;28;20458;-69
2023/12/24 01:20:15;;;;;;;6.30;0.87;;;8.20;21.30;;;;;;5047994;28;20482;-70
2023/12/24 01:22:42;;;;;;;2.93;0.60;;;8.10;21.50;;;;;;5044788;28;20481;-71
2023/12/24 01:25:09;;;;;;;2.93;0.40;;;8.20;21.60;;;;;;5048425;28;20458;-69
2023/12/24 01:27:36;;;;;;;2.90;0.50;;;8.20;21.40;;;;;;5051669;28;20453;-70
2023/12/24 01:30:06;;;;;;;3.00;0.60;;;8.20;21.30;;;;;;5050037;28;20482;-69
2023/12/24 01:32:32;;;;;;;2.80;0.50;;;8.20;21.50;;;;;;5048192;28;20465;-69
2023/12/24 01:34:59;;;;;;;3.00;0.50;;;8.20;21.50;;;;;;5046581;28;20446;-70
2023/12/24 01:37:26;;;;;;;2.90;0.70;;;8.20;21.30;;;;;;5045239;28;20458;-71
2023/12/24 01:39:53;;;;;;;2.80;0.50;;;8.20;21.20;;;;;;5047637;28;20850;-70
2023/12/24 01:42:19;;;;;;;4.90;0.70;;;8.20;20.80;;;;;;5043608;28;20485;-69
2023/12/24 01:44:46;;;;;;;5.77;0.60;;;8.20;21.00;;;;;;5048450;28;20989;-69
2023/12/24 01:47:14;;;;;;;2.90;0.50;;;8.20;21.10;;;;;;5047070;28;20802;-69
2023/12/24 01:49:45;;;;;;;3.10;0.60;;;8.20;21.10;;;;;;5041405;28;21009;-70
2023/12/24 01:52:12;;;;;;;3.00;0.67;;;8.20;20.90;;;;;;5048775;28;20568;-69
2023/12/24 01:54:39;;;;;;;3.00;0.50;;;8.20;20.60;;;;;;5045584;28;20465;-70
2023/12/24 01:57:06;;;;;;;2.90;0.50;;;8.20;20.60;;;;;;5048367;28;20477;-70
2023/12/24 01:59:34;;;;;;;2.90;0.40;;;8.20;20.40;;;;;;5046405;28;20478;-69
2023/12/24 02:02:03;;;;;;;3.57;0.53;;;8.20;20.60;;;;;;5047214;28;20485;-69
2023/12/24 02:04:31;;;;;;;2.90;0.70;;;8.20;20.70;;;;;;5046156;28;20562;-69
2023/12/24 02:06:58;;;;;;;2.90;0.50;;;8.20;20.50;;;;;;5050428;28;20509;-69
2023/12/24 02:09:25;;;;;;;3.10;0.47;;;8.20;20.70;;;;;;5045461;28;21233;-70
2023/12/24 02:11:51;;;;;;;2.80;0.50;;;8.20;20.80;;;;;;5047785;28;20462;-69
2023/12/24 02:14:18;;;;;;;2.90;0.50;;;8.20;20.60;;;;;;5050491;28;20968;-69
2023/12/24 02:16:48;;;;;;;3.30;0.47;;;8.20;20.60;;;;;;5047116;28;20970;-69
2023/12/24 02:19:18;;;;;;;2.70;0.40;;;8.20;20.90;;;;;;5042387;28;20478;-69
2023/12/24 02:21:46;;;;;;;3.20;0.63;;;8.20;20.70;;;;;;5045105;28;20482;-69
2023/12/24 02:24:15;;;;;;;2.90;0.60;;;8.20;20.60;;;;;;5052010;28;20486;-68
2023/12/24 02:26:59;;;;;;;2.90;0.50;;;8.20;20.30;;;;;;5048170;28;20461;-69
2023/12/24 02:29:32;;;;;;;4.00;0.57;;;8.20;20.40;;;;;;5045694;28;20517;-69
2023/12/24 02:32:06;;;;;;;3.70;0.80;;;8.20;20.50;;;;;;5048492;28;20470;-68
2023/12/24 02:34:34;;;;;;;2.90;0.50;;;8.20;20.30;;;;;;5043930;28;20462;-69
2023/12/24 02:37:03;;;;;;;2.80;0.40;;;8.20;20.20;;;;;;5067470;28;20457;-69
2023/12/24 02:39:28;;;;;;;2.87;0.40;;;8.20;20.00;;;;;;5056289;28;20479;-70
2023/12/24 02:41:55;;;;;;;3.30;0.60;;;8.20;20.00;;;;;;5046330;28;20491;-70
2023/12/24 02:44:22;;;;;;;2.90;0.60;;;8.20;20.10;;;;;;5051111;28;20210;-70
2023/12/24 02:46:48;;;;;;;3.37;0.60;;;8.20;20.20;;;;;;5046954;28;20472;-70
2023/12/24 02:49:15;;;;;;;3.23;0.57;;;8.20;20.20;;;;;;5047577;28;20488;-69
2023/12/24 02:51:42;;;;;;;2.93;0.50;;;8.20;20.20;;;;;;5042683;28;20469;-69
2023/12/24 02:54:10;;;;;;;2.80;0.60;;;8.20;20.00;;;;;;5046895;28;20485;-69
2023/12/24 02:56:37;;;;;;;3.33;0.60;;;8.20;19.90;;;;;;5044618;28;20498;-69
2023/12/24 02:59:04;;;;;;;3.00;0.50;;;8.20;20.00;;;;;;5045401;28;20473;-70
2023/12/24 03:01:31;;;;;;;3.63;0.50;;;8.20;19.80;;;;;;5041680;28;20506;-70
2023/12/24 03:03:57;;;;;;;3.00;0.50;;;8.20;19.70;;;;;;5048595;28;21231;-70
2023/12/24 03:06:24;;;;;;;3.37;1.47;;;8.20;19.70;;;;;;5044333;28;20469;-70
2023/12/24 03:08:51;;;;;;;4.37;0.70;;;8.20;19.80;;;;;;5045001;28;20482;-70
2023/12/24 03:11:19;;;;;;;3.53;0.53;;;8.20;19.60;;;;;;5139269;23;20490;-66
2023/12/24 03:13:45;;;;;;;3.03;0.70;;;8.20;19.60;;;;;;5045069;28;20946;-66
2023/12/24 03:16:12;;;;;;;3.20;0.60;;;8.20;19.60;;;;;;5043569;28;20473;-66
2023/12/24 03:18:39;;;;;;;2.93;0.50;;;8.20;19.70;;;;;;5044804;28;20466;-67
2023/12/24 03:21:06;;;;;;;4.80;0.60;;;8.20;19.80;;;;;;5045578;28;20462;-66
2023/12/24 03:23:32;;;;;;;2.90;0.60;;;8.20;19.80;;;;;;5042860;28;20510;-66
2023/12/24 03:25:59;;;;;;;2.90;0.50;;;8.20;19.80;;;;;;5048719;28;20462;-66
2023/12/24 03:28:27;;;;;;;3.53;0.50;;;8.20;19.60;;;;;;5050342;28;20459;-66
2023/12/24 03:30:54;;;;;;;3.40;0.60;;;8.20;19.40;;;;;;5049812;28;20472;-66
2023/12/24 03:33:21;;;;;;;3.10;0.70;;;8.20;19.60;;;;;;5043574;28;20967;-66
2023/12/24 03:35:48;;;;;;;3.57;0.63;;;8.20;19.60;;;;;;5050030;28;20469;-66
2023/12/24 03:38:16;;;;;;;3.10;0.60;;;8.20;19.60;;;;;;5045675;28;20458;-67
2023/12/24 03:40:43;;;;;;;3.07;0.70;;;8.20;19.70;;;;;;5045797;28;20486;-66
2023/12/24 03:43:10;;;;;;;3.20;0.73;;;8.20;19.70;;;;;;5050068;28;20888;-67
2023/12/24 03:45:38;;;;;;;3.10;0.60;;;8.20;19.80;;;;;;5050873;28;20465;-67
2023/12/24 03:48:05;;;;;;;2.80;0.53;;;8.20;19.70;;;;;;5043723;28;20463;-67
2023/12/24 03:50:32;;;;;;;2.80;0.50;;;8.20;19.80;;;;;;5051929;28;20486;-67
2023/12/24 03:52:59;;;;;;;3.30;0.70;;;8.20;19.80;;;;;;5049399;28;20912;-67
2023/12/24 03:55:26;;;;;;;3.57;0.60;;;8.20;19.90;;;;;;5050627;28;20580;-67
2023/12/24 03:57:52;;;;;;;6.27;0.80;;;8.20;19.80;;;;;;5049655;28;20459;-67
2023/12/24 04:00:19;;;;;;;2.97;0.53;;;8.20;19.80;;;;;;5045180;28;20485;-67
2023/12/24 04:02:48;;;;;;;3.70;0.60;;;8.20;19.70;;;;;;5048773;28;20492;-67
2023/12/24 04:05:15;;;;;;;3.20;0.70;;;8.20;19.70;;;;;;5050672;28;20903;-67
2023/12/24 04:07:42;;;;;;;3.57;0.97;;;8.20;19.70;;;;;;5050242;28;20458;-67
2023/12/24 04:10:09;;;;;;;2.90;0.50;;;8.20;19.70;;;;;;5043384;28;20477;-67
2023/12/24 04:12:36;;;;;;;3.60;0.60;;;8.20;19.70;;;;;;5042643;28;20489;-67
2023/12/24 04:15:03;;;;;;;2.87;0.70;;;8.20;19.60;;;;;;5047509;28;20473;-67
2023/12/24 04:17:29;;;;;;;2.80;0.40;;;8.20;19.80;;;;;;5048793;28;20966;-67
2023/12/24 04:19:57;;;;;;;3.00;0.50;;;8.20;19.70;;;;;;5049165;28;20496;-67
2023/12/24 04:22:24;;;;;;;3.00;0.60;;;8.20;19.80;;;;;;5046624;28;20482;-67
2023/12/24 04:24:51;;;;;;;3.00;0.63;;;8.20;19.80;;;;;;5046196;28;20454;-67
2023/12/24 04:27:17;;;;;;;3.00;0.57;;;8.20;19.80;;;;;;5044954;28;20921;-67
2023/12/24 04:29:44;;;;;;;2.93;0.57;;;8.20;19.90;;;;;;5049080;28;20474;-67
2023/12/24 04:32:12;;;;;;;2.90;0.50;;;8.20;19.80;;;;;;5047943;28;20470;-67
2023/12/24 04:34:39;;;;;;;2.90;0.60;;;8.20;20.00;;;;;;5046922;28;20474;-68
2023/12/24 04:37:07;;;;;;;2.90;0.50;;;8.20;20.00;;;;;;5042813;28;20470;-67
2023/12/24 04:39:34;;;;;;;3.23;0.67;;;8.20;19.90;;;;;;5046215;28;20493;-67
2023/12/24 04:42:00;;;;;;;3.03;0.60;;;8.20;19.80;;;;;;5048587;28;20458;-67
2023/12/24 04:44:27;;;;;;;2.90;0.40;;;8.20;19.70;;;;;;5046789;28;20831;-67
2023/12/24 04:46:54;;;;;;;3.20;0.60;;;8.20;19.70;;;;;;5048611;28;20458;-67
2023/12/24 04:49:20;;;;;;;3.23;0.50;;;8.20;19.80;;;;;;5050596;28;20484;-67
2023/12/24 04:51:47;;;;;;;2.80;0.53;;;8.20;19.90;;;;;;5045377;28;20469;-67
2023/12/24 04:54:15;;;;;;;2.77;0.40;;;8.20;20.00;;;;;;5048635;28;20462;-67
2023/12/24 04:56:42;;;;;;;2.80;0.50;;;8.20;20.10;;;;;;5044140;28;20473;-67
2023/12/24 04:59:08;;;;;;;3.47;0.50;;;8.10;20.20;;;;;;5049279;28;20478;-66
2023/12/24 05:01:35;;;;;;;2.90;0.50;;;8.20;20.90;;;;;;5046475;28;20493;-66
2023/12/24 05:04:03;;;;;;;2.90;0.50;;;8.20;20.00;;;;;;5048096;28;20478;-67
2023/12/24 05:06:29;;;;;;;3.20;0.60;;;8.10;20.10;;;;;;5044471;28;20477;-67
2023/12/24 05:08:56;;;;;;;3.83;0.40;;;8.20;20.00;;;;;;5045874;28;20492;-67
2023/12/24 05:11:24;;;;;;;2.90;0.50;;;8.20;20.20;;;;;;5046319;28;20498;-67
2023/12/24 05:13:51;;;;;;;3.07;0.60;;;8.20;20.00;;;;;;5048637;28;20465;-67
2023/12/24 05:16:17;;;;;;;3.40;0.60;;;8.20;20.20;;;;;;5046873;28;20469;-67
2023/12/24 05:18:44;;;;;;;3.40;0.80;;;8.20;20.30;;;;;;5045216;28;21028;-67
2023/12/24 05:21:11;;;;;;;2.93;0.53;;;8.20;20.20;;;;;;5044689;28;20470;-67
2023/12/24 05:23:37;;;;;;;3.20;0.60;;;8.20;20.20;;;;;;5048375;28;21057;-67
2023/12/24 05:26:04;;;;;;;2.90;0.60;;;8.20;20.30;;;;;;5046637;28;20474;-67
2023/12/24 05:28:32;;;;;;;3.07;0.60;;;8.20;20.30;;;;;;5044255;28;20463;-67
2023/12/24 05:31:00;;;;;;;4.30;0.90;;;8.20;20.10;;;;;;5044837;28;20486;-67
2023/12/24 05:33:26;;;;;;;3.00;0.60;;;8.20;20.20;;;;;;5048227;28;20938;-67
2023/12/24 05:35:53;;;;;;;3.10;0.70;;;8.20;20.30;;;;;;5046848;28;20469;-67
2023/12/24 05:38:20;;;;;;;2.90;0.60;;;8.20;20.20;;;;;;5048865;28;20992;-67
2023/12/24 05:40:47;;;;;;;2.90;0.50;;;8.20;20.00;;;;;;5045647;28;20481;-67
2023/12/24 05:43:13;;;;;;;3.27;0.70;;;8.20;20.10;;;;;;5049317;28;21048;-67
2023/12/24 05:45:43;;;;;;;3.00;0.70;;;8.20;20.20;;;;;;5047837;28;20458;-67
2023/12/24 05:48:10;;;;;;;3.40;0.70;;;8.20;20.50;;;;;;5043532;28;20825;-67
2023/12/24 05:50:36;;;;;;;3.33;0.70;;;8.20;20.40;;;;;;5052482;28;20470;-67
2023/12/24 05:53:03;;;;;;;3.30;0.80;;;8.20;20.40;;;;;;5046269;28;21139;-67
2023/12/24 05:55:30;;;;;;;3.10;0.73;;;8.20;20.40;;;;;;5047633;28;20466;-67
2023/12/24 05:57:57;;;;;;;3.20;0.67;;;8.20;20.50;;;;;;5047097;28;20470;-67
2023/12/24 06:00:24;;;;;;;2.90;0.70;;;8.20;20.50;;;;;;5044687;28;20478;-67
2023/12/24 06:02:52;;;;;;;3.20;0.97;;;8.20;20.50;;;;;;5047857;28;21005;-67
2023/12/24 06:05:19;;;;;;;3.07;0.60;;;8.20;20.40;;;;;;5041928;28;20458;-67
2023/12/24 06:07:45;;;;;;;3.53;0.90;;;8.20;20.30;;;;;;5042425;28;20849;-67
2023/12/24 06:10:12;;;;;;;3.03;0.80;;;8.30;20.20;;;;;;5045572;28;20489;-66
2023/12/24 06:12:39;;;;;;;3.20;0.77;;;8.30;20.30;;;;;;5047104;28;20466;-67
2023/12/24 06:15:07;;;;;;;3.00;0.50;;;8.30;20.30;;;;;;5047301;28;20465;-67
2023/12/24 06:17:33;;;;;;;3.10;0.60;;;8.30;20.20;;;;;;5045801;28;20461;-67
2023/12/24 06:20:04;;;;;;;2.80;0.53;;;8.30;20.30;;;;;;5046465;28;20482;-67
2023/12/24 06:22:30;;;;;;;4.00;0.73;;;8.30;20.40;;;;;;5050131;28;20453;-67
2023/12/24 06:24:57;;;;;;;3.20;0.80;;;8.30;20.40;;;;;;5045050;28;20454;-67
2023/12/24 06:27:24;;;;;;;3.47;0.90;;;8.30;20.40;;;;;;5044551;28;20454;-67
2023/12/24 06:29:50;;;;;;;3.17;0.70;;;8.30;21.30;;;;;;5046199;28;20474;-67
2023/12/24 06:32:17;;;;;;;3.10;0.60;;;8.30;21.00;;;;;;5045791;28;20470;-67
2023/12/24 06:34:44;;;;;;;3.73;0.70;;;8.40;20.30;;;;;;5045602;28;20454;-67
2023/12/24 06:37:12;;;;;;;3.13;0.87;;;8.40;20.10;;;;;;5044501;28;20459;-67
2023/12/24 06:39:39;;;;;;;4.73;0.60;;;8.40;20.20;;;;;;5045489;28;20498;-67
2023/12/24 06:42:07;;;;;;;2.90;0.60;;;8.40;20.20;;;;;;5044415;28;20465;-71
2023/12/24 06:44:34;;;;;;;5.90;0.90;;;8.30;20.30;;;;;;5043368;28;20474;-67
2023/12/24 06:47:00;;;;;;;3.73;0.73;;;8.30;20.60;;;;;;5039255;28;20820;-67
2023/12/24 06:49:27;;;;;;;3.00;0.80;;;8.30;20.60;;;;;;5040575;28;20486;-67
2023/12/24 06:51:54;;;;;;;3.00;0.70;;;8.40;20.50;;;;;;5037395;28;20459;-67
2023/12/24 06:54:22;;;;;;;3.40;0.50;;;8.40;20.50;;;;;;5041197;28;20473;-67
2023/12/24 06:56:48;;;;;;;3.13;0.70;;;8.40;20.30;;;;;;5045913;28;20537;-67
2023/12/24 06:59:15;;;;;;;3.80;0.80;;;8.40;20.30;;;;;;5042657;28;20489;-66
2023/12/24 07:01:42;;;;;;;6.13;0.80;;;8.40;20.40;;;;;;5044517;28;20477;-67
2023/12/24 07:04:08;;;;;;;3.30;0.70;;;8.40;20.10;;;;;;5046159;28;20482;-66
2023/12/24 07:06:35;;;;;;;3.67;0.67;;;8.40;20.00;;;;;;5040277;28;20742;-66
2023/12/24 07:09:02;;;;;;;3.33;0.70;;;8.40;20.00;;;;;;5048454;28;20481;-64
2023/12/24 07:11:30;;;;;;;3.00;0.60;;;8.40;20.10;;;;;;5051147;28;20961;-66
2023/12/24 07:13:57;;;;;;;3.63;0.73;;;8.40;20.00;;;;;;5051507;28;20457;-66
2023/12/24 07:16:23;;;;;;;2.97;0.70;;;8.40;20.00;;;;;;5050370;28;21269;-67
2023/12/24 07:18:50;;;;;;;3.10;0.60;;;8.40;20.00;;;;;;5050619;28;20482;-66
2023/12/24 07:21:17;;;;;;;2.90;0.50;;;8.40;19.90;;;;;;5051908;28;20465;-66
2023/12/24 07:23:43;;;;;;;7.40;2.80;;;8.40;19.90;;;;;;5045903;28;20493;-66
2023/12/24 07:26:09;;;;;;;3.00;0.50;;;8.40;19.80;;;;;;5044509;28;20974;-67
2023/12/24 07:28:37;;;;;;;2.97;0.50;;;8.40;19.50;;;;;;5043121;28;20839;-66
2023/12/24 07:31:05;;;;;;;2.87;0.50;;;8.40;19.80;;;;;;5040668;28;20474;-67
2023/12/24 07:33:31;;;;;;;3.40;0.60;;;8.40;19.70;;;;;;5035257;28;20453;-67
2023/12/24 07:35:58;;;;;;;2.80;0.40;;;8.50;19.60;;;;;;5041873;28;20477;-66
2023/12/24 07:38:29;;;;;;;3.00;0.67;;;8.50;19.60;;;;;;5036423;28;20947;-67
2023/12/24 07:40:56;;;;;;;2.93;0.50;;;8.40;19.70;;;;;;5037916;28;20523;-67
2023/12/24 07:43:22;;;;;;;3.13;0.60;;;8.50;19.80;;;;;;5037469;28;20485;-67
2023/12/24 07:45:52;;;;;;;3.10;0.60;;;8.40;19.70;;;;;;5038951;28;20833;-67
2023/12/24 07:48:18;;;;;;;3.50;0.80;;;8.50;19.60;;;;;;5036450;28;20477;-67
2023/12/24 07:50:45;;;;;;;2.90;0.50;;;8.50;19.50;;;;;;5036440;28;20853;-65
2023/12/24 07:53:12;;;;;;;3.50;0.73;;;8.50;19.60;;;;;;5037208;28;20457;-65
2023/12/24 07:55:39;;;;;;;4.37;1.03;;;8.40;19.50;;;;;;5034722;28;20477;-65
2023/12/24 07:58:05;;;;;;;4.33;1.27;;;8.40;19.60;;;;;;5040806;28;20458;-65
2023/12/24 08:00:32;;;;;;;3.40;0.67;;;8.50;19.60;;;;;;5037424;28;20848;-66
2023/12/24 08:03:00;;;;;;;2.90;0.70;;;8.50;19.50;;;;;;5046317;28;20474;-65
2023/12/24 08:05:27;;;;;;;3.30;0.83;;;8.50;19.50;;;;;;5044964;28;20488;-67
2023/12/24 08:07:53;;;;;;;3.20;0.60;;;8.50;19.30;;;;;;5034470;28;20462;-66
2023/12/24 08:10:20;;;;;;;4.30;0.60;;;8.50;19.20;;;;;;5031269;28;20494;-65
2023/12/24 08:12:47;;;;;;;3.40;0.70;;;8.50;19.20;;;;;;5035198;28;20465;-65
2023/12/24 08:15:13;;;;;;;3.17;0.60;;;8.50;19.10;;;;;;5034889;28;21026;-65
2023/12/24 08:17:41;;;;;;;3.50;0.70;;;8.60;19.10;;;;;;5035213;28;20470;-65
2023/12/24 08:20:11;;;;;;;3.13;0.60;;;8.60;19.10;;;;;;5035903;28;22464;-65
2023/12/24 08:22:38;;;;;;;2.80;0.50;;;8.60;19.10;;;;;;5040012;28;20459;-65
2023/12/24 08:25:05;;;;;;;3.10;0.60;;;8.70;19.10;;;;;;5040549;28;20486;-65
2023/12/24 08:27:32;;;;;;;2.90;0.53;;;8.70;19.00;;;;;;5044699;28;20814;-65
2023/12/24 08:29:59;;;;;;;3.03;0.63;;;8.70;18.70;;;;;;5042634;28;20486;-66
2023/12/24 08:32:25;;;;;;;3.10;0.63;;;8.70;18.80;;;;;;5040299;28;21061;-66
2023/12/24 08:34:52;;;;;;;3.73;0.67;;;8.70;19.00;;;;;;5045852;28;20477;-65
2023/12/24 08:37:20;;;;;;;3.00;0.70;;;8.70;18.80;;;;;;5044004;28;20470;-65
2023/12/24 08:39:47;;;;;;;6.67;1.17;;;8.70;19.00;;;;;;5044443;28;20486;-65
2023/12/24 08:42:13;;;;;;;3.10;0.70;;;8.80;19.00;;;;;;5044425;28;20957;-65
2023/12/24 08:44:41;;;;;;;3.10;0.70;;;8.80;18.90;;;;;;5039410;28;20483;-65
2023/12/24 08:47:07;;;;;;;2.87;0.50;;;8.70;19.10;;;;;;5042144;28;21179;-65
2023/12/24 08:49:34;;;;;;;3.33;0.50;;;8.80;19.00;;;;;;5040861;28;20502;-65
2023/12/24 08:52:00;;;;;;;3.00;0.47;;;8.70;19.10;;;;;;5043313;28;20465;-66
2023/12/24 08:54:28;;;;;;;3.10;0.70;;;8.80;19.10;;;;;;5036058;28;20455;-65
2023/12/24 08:56:54;;;;;;;3.00;0.57;;;8.80;19.30;;;;;;5042552;28;20235;-65
2023/12/24 08:59:21;;;;;;;3.00;0.70;;;8.80;19.40;;;;;;5039370;28;20484;-65
2023/12/24 09:01:49;;;;;;;2.93;0.63;;;8.80;19.50;;;;;;5035582;28;20844;-65
2023/12/24 09:04:16;;;;;;;2.80;0.40;;;8.80;19.20;;;;;;5038230;28;20660;-65
2023/12/24 09:06:43;;;;;;;2.90;0.60;;;8.90;19.40;;;;;;5037898;28;20462;-65
2023/12/24 09:09:09;;;;;;;2.90;0.60;;;8.90;19.40;;;;;;5036842;28;20510;-65
2023/12/24 09:11:38;;;;;;;3.10;0.60;;;8.90;19.50;;;;;;5036649;28;20561;-65
2023/12/24 09:14:05;;;;;;;3.63;0.63;;;8.90;19.50;;;;;;5036391;28;20458;-65
2023/12/24 09:16:31;;;;;;;3.17;0.67;;;8.90;19.70;;;;;;5040728;28;21078;-66
2023/12/24 09:18:58;;;;;;;2.90;0.63;;;8.90;19.50;;;;;;5042476;28;20509;-66
2023/12/24 09:21:25;;;;;;;2.80;0.50;;;8.90;19.60;;;;;;5039013;28;20461;-66
2023/12/24 09:23:54;;;;;;;2.97;0.70;;;9.00;19.60;;;;;;5029361;28;20972;-66
2023/12/24 09:26:20;;;;;;;2.90;0.70;;;9.00;19.60;;;;;;5042711;22;20491;-69
2023/12/24 09:28:48;;;;;;;3.30;0.83;;;9.00;19.70;;;;;;5019118;28;20493;-69
2023/12/24 09:31:15;;;;;;;3.10;0.70;;;9.00;19.60;;;;;;5016608;28;20827;-69
2023/12/24 09:33:42;;;;;;;3.40;0.83;;;9.10;19.70;;;;;;5020253;28;20468;-69
2023/12/24 09:36:09;;;;;;;3.10;0.80;;;9.10;19.40;;;;;;5019643;28;20471;-69
2023/12/24 09:38:36;;;;;;;3.20;0.70;;;9.10;19.50;;;;;;5018373;28;20479;-70
2023/12/24 09:41:03;;;;;;;3.20;0.70;;;9.10;19.50;;;;;;5016676;28;20819;-70
2023/12/24 09:43:31;;;;;;;3.20;0.90;;;9.20;19.60;;;;;;5018168;28;20468;-70
2023/12/24 09:45:59;;;;;;;3.27;0.67;;;9.20;19.50;;;;;;5021377;28;20579;-70
2023/12/24 09:48:26;;;;;;;3.20;0.80;;;9.20;19.60;;;;;;5017337;28;20834;-70
2023/12/24 09:50:53;;;;;;;3.33;0.70;;;9.20;19.40;;;;;;5015832;28;20517;-69
2023/12/24 09:53:19;;;;;;;3.33;0.90;;;9.30;19.30;;;;;;5016573;28;20514;-68
2023/12/24 09:55:46;;;;;;;3.00;0.70;;;9.30;19.50;;;;;;5013469;28;21042;-69
2023/12/24 09:58:13;;;;;;;3.10;0.70;;;9.30;19.20;;;;;;5017886;28;20475;-69
2023/12/24 10:00:39;;;;;;;3.30;0.80;;;9.30;19.20;;;;;;5022479;28;20474;-70
2023/12/24 10:03:08;;;;;;;3.00;0.70;;;9.30;19.40;;;;;;5021968;28;20464;-68
2023/12/24 10:05:34;;;;;;;3.47;0.83;;;9.30;19.30;;;;;;5029844;28;20498;-69
2023/12/24 10:08:02;;;;;;;3.40;0.80;;;9.30;19.20;;;;;;5026911;28;20471;-69
2023/12/24 10:10:30;;;;;;;3.47;0.90;;;9.40;19.20;;;;;;5024995;28;20577;-71
2023/12/24 10:13:04;;;;;;;3.00;0.60;;;9.40;19.10;;;;;;5034219;28;20473;-69
2023/12/24 10:15:32;;;;;;;3.10;0.80;;;9.40;19.20;;;;;;5026184;28;20567;-68
2023/12/24 10:18:17;;;;;;;3.07;0.77;;;9.40;19.20;;;;;;5025438;28;20499;-70
2023/12/24 10:20:44;;;;;;;2.80;0.40;;;9.50;19.60;;;;;;5025535;28;20514;-68
2023/12/24 10:23:11;;;;;;;3.57;0.70;;;9.50;19.70;;;;;;5028919;28;20459;-69
2023/12/24 10:25:37;;;;;;;3.43;0.90;;;9.50;19.80;;;;;;5029561;28;20490;-69
2023/12/24 10:28:06;;;;;;;5.30;1.57;;;9.50;20.00;;;;;;5022777;28;20487;-70
2023/12/24 10:30:33;;;;;;;3.23;0.80;;;9.50;20.00;;;;;;5027060;28;20472;-68
2023/12/24 10:33:08;;;;;;;3.40;0.70;;;9.50;20.00;;;;;;5027122;28;20459;-71
2023/12/24 10:35:37;;;;;;;4.07;1.00;;;9.50;20.10;;;;;;5025807;28;20459;-69
2023/12/24 10:38:13;;;;;;;3.30;0.80;;;9.50;20.40;;;;;;5028496;28;20459;-69
2023/12/24 10:40:40;;;;;;;3.00;0.60;;;9.50;20.50;;;;;;5025913;28;20522;-70
2023/12/24 10:43:07;;;;;;;3.10;0.80;;;9.50;20.40;;;;;;5023024;28;20468;-68
2023/12/24 10:45:34;;;;;;;3.43;0.80;;;9.50;20.40;;;;;;5022604;28;20550;-69
2023/12/24 10:48:01;;;;;;;3.20;0.63;;;9.60;20.70;;;;;;5024415;28;20908;-67
2023/12/24 10:50:28;;;;;;;3.40;0.70;;;9.50;21.00;;;;;;5023168;28;20479;-67
2023/12/24 10:52:56;;;;;;;3.10;0.80;;;9.50;21.30;;;;;;5023631;28;20833;-68
2023/12/24 10:55:23;;;;;;;3.63;0.80;;;9.60;21.10;;;;;;5024236;28;20447;-70
2023/12/24 10:57:59;;;;;;;3.53;0.90;;;9.60;21.10;;;;;;5027918;28;20474;-70
2023/12/24 11:00:26;;;;;;;3.30;0.80;;;9.60;21.10;;;;;;5022979;28;20474;-68
2023/12/24 11:02:53;;;;;;;3.00;0.70;;;9.60;21.30;;;;;;5023609;28;20486;-68
2023/12/24 11:05:48;;;;;;;3.57;0.80;;;9.50;21.20;;;;;;5023523;28;20481;-68
2023/12/24 11:08:30;;;;;;;4.00;1.30;;;9.50;21.00;;;;;;5024353;28;20455;-69
2023/12/24 11:11:01;;;;;;;3.63;1.20;;;9.50;21.20;;;;;;5025879;28;20470;-69
2023/12/24 11:13:45;;;;;;;3.57;1.00;;;9.50;21.10;;;;;;5023699;28;20498;-71
2023/12/24 11:16:13;;;;;;;3.90;1.20;;;9.50;21.20;;;;;;5021734;28;20521;-69
2023/12/24 11:18:42;;;;;;;3.70;1.20;;;9.50;21.20;;;;;;5029878;28;20475;-69
2023/12/24 11:21:10;;;;;;;4.40;1.03;;;9.50;21.10;;;;;;5025383;28;20524;-69
2023/12/24 11:23:38;;;;;;;3.60;0.97;;;9.50;21.10;;;;;;5027731;28;20455;-68
2023/12/24 11:26:29;;;;;;;4.30;1.07;;;9.50;20.90;;;;;;5018789;28;20882;-71
2023/12/24 11:28:55;;;;;;;3.90;1.27;;;9.50;21.10;;;;;;5022538;28;21034;-71
2023/12/24 11:31:24;;;;;;;3.20;0.80;;;9.50;20.90;;;;;;5023317;28;20991;-69
2023/12/24 11:33:54;;;;;;;4.07;1.00;;;9.50;21.10;;;;;;5025107;28;20459;-69
2023/12/24 11:36:21;;;;;;;3.63;1.10;;;9.50;21.10;;;;;;5025979;28;20455;-68
2023/12/24 11:38:55;;;;;;;3.70;0.80;;;9.50;21.10;;;;;;5024435;28;20506;-68
2023/12/24 11:41:23;;;;;;;3.10;0.63;;;9.50;21.10;;;;;;5024018;28;20844;-68
2023/12/24 11:43:55;;;;;;;3.10;0.70;;;9.50;21.20;;;;;;5024577;28;20974;-68
2023/12/24 11:46:22;;;;;;;3.23;0.80;;;9.50;21.00;;;;;;5024913;28;20483;-72
2023/12/24 11:48:49;;;;;;;3.23;0.90;;;9.60;20.70;;;;;;5028588;28;20491;-69
2023/12/24 11:51:16;;;;;;;3.40;1.00;;;9.50;21.10;;;;;;5026800;28;20458;-70
2023/12/24 11:53:45;;;;;;;3.30;0.90;;;9.50;21.00;;;;;;5026373;28;20493;-71
2023/12/24 11:56:15;;;;;;;3.30;0.90;;;9.60;20.80;;;;;;5022311;28;20494;-72
2023/12/24 11:58:56;;;;;;;3.20;0.87;;;9.50;21.50;;;;;;5028554;28;20470;-72
2023/12/24 12:01:24;;;;;;;3.60;1.00;;;9.50;21.80;;;;;;5025932;28;20470;-70
2023/12/24 12:03:55;;;;;;;3.00;0.80;;;9.50;21.60;;;;;;5030113;28;20469;-70
2023/12/24 12:06:21;;;;;;;3.33;0.87;;;9.50;21.60;;;;;;5026538;28;20656;-69
2023/12/24 12:08:48;;;;;;;3.00;0.73;;;9.50;21.10;;;;;;5028542;28;20481;-69
2023/12/24 12:11:16;;;;;;;3.30;0.87;;;9.50;21.00;;;;;;5019343;28;20470;-68
2023/12/24 12:13:43;;;;;;;5.10;0.70;;;9.50;20.70;;;;;;5022490;28;20471;-70
2023/12/24 12:16:10;;;;;;;4.77;0.90;;;9.50;20.40;;;;;;5026164;28;20458;-69
2023/12/24 12:18:37;;;;;;;3.77;0.90;;;9.50;20.50;;;;;;5028122;28;20836;-69
2023/12/24 12:21:04;;;;;;;3.20;0.80;;;9.50;20.20;;;;;;5028441;28;20447;-69
2023/12/24 12:23:31;;;;;;;3.30;0.97;;;9.50;20.00;;;;;;5028825;28;20475;-70
2023/12/24 12:25:57;;;;;;;3.20;0.80;;;9.50;20.00;;;;;;5035103;28;20487;-69
2023/12/24 12:28:25;;;;;;;3.00;0.70;;;9.50;19.90;;;;;;5027597;28;20474;-68
2023/12/24 12:30:52;;;;;;;3.13;0.83;;;9.50;19.80;;;;;;5023222;28;20482;-70
2023/12/24 12:33:19;;;;;;;3.40;0.70;;;9.60;19.90;;;;;;5024104;28;20467;-70
2023/12/24 12:35:45;;;;;;;3.40;1.10;;;9.60;19.80;;;;;;5025433;28;20463;-70
2023/12/24 12:38:12;;;;;;;4.80;0.77;;;9.60;19.90;;;;;;5026943;28;21254;-70
2023/12/24 12:40:39;;;;;;;3.40;1.00;;;9.60;19.70;;;;;;5025546;28;20482;-70
2023/12/24 12:43:08;;;;;;;3.50;1.00;;;9.60;19.80;;;;;;5024153;28;20948;-72
2023/12/24 12:45:36;;;;;;;2.90;0.60;;;9.60;19.80;;;;;;5024981;28;20982;-72
2023/12/24 12:48:03;;;;;;;2.90;0.60;;;9.70;19.70;;;;;;5023901;28;20814;-71
2023/12/24 12:50:30;;;;;;;7.40;0.90;;;9.70;19.60;;;;;;5024120;28;20491;-72
2023/12/24 12:52:56;;;;;;;3.40;0.90;;;9.70;19.50;;;;;;5016458;23;20498;-72
2023/12/24 12:55:23;;;;;;;3.00;0.60;;;9.80;19.70;;;;;;5028470;28;20478;-72
2023/12/24 12:57:50;;;;;;;3.47;1.00;;;9.80;19.80;;;;;;5044068;28;20466;-72
2023/12/24 13:00:21;;;;;;;3.47;0.80;;;9.90;19.80;;;;;;5044102;28;20462;-72